Wetterdaten: Freitag, 12.02.2010
Datum Zeit Temp. A. Feuchte A. Luftdruck Regen Wind Richtung Richtung Sonnenschein UV Solar Windben
12.02.2010 00:00 -2,3 C 86 % 1013,8 hPa 0,0 mm 3,7 km/h (1 Bft) N-NO 33 0 min 0 UV-I 0 W/m 16,1 km/h (3 Bft)
12.02.2010 00:10 -2,4 C 86 % 1013,9 hPa 0,0 mm 4,9 km/h (1 Bft) N-NW 345 0 min 0 UV-I 0 W/m 19,3 km/h (3 Bft)
12.02.2010 00:20 -2,3 C 86 % 1013,9 hPa 0,0 mm 5,3 km/h (1 Bft) N 355 0 min 0 UV-I 0 W/m 19,3 km/h (3 Bft)
12.02.2010 00:30 -2,3 C 86 % 1013,9 hPa 0,0 mm 4,0 km/h (1 Bft) N-NO 26 0 min 0 UV-I 0 W/m 16,1 km/h (3 Bft)
12.02.2010 00:40 -2,3 C 87 % 1014,0 hPa 0,0 mm 4,6 km/h (1 Bft) N 9 0 min 0 UV-I 0 W/m 11,3 km/h (2 Bft)
12.02.2010 00:50 -2,3 C 87 % 1014,0 hPa 0,0 mm 4,2 km/h (1 Bft) NO 34 0 min 0 UV-I 0 W/m 16,1 km/h (3 Bft)
12.02.2010 01:00 -2,3 C 87 % 1013,9 hPa 0,0 mm 3,7 km/h (1 Bft) N 9 0 min 0 UV-I 0 W/m 14,5 km/h (3 Bft)
12.02.2010 01:10 -2,3 C 87 % 1014,0 hPa 0,0 mm 3,5 km/h (1 Bft) N-NO 14 0 min 0 UV-I 0 W/m 8,0 km/h (2 Bft)
12.02.2010 01:20 -2,3 C 87 % 1013,9 hPa 0,0 mm 3,9 km/h (1 Bft) N-NO 13 0 min 0 UV-I 0 W/m 14,5 km/h (3 Bft)
12.02.2010 01:30 -2,3 C 87 % 1013,9 hPa 0,0 mm 3,3 km/h (1 Bft) N 9 0 min 0 UV-I 0 W/m 11,3 km/h (2 Bft)
12.02.2010 01:40 -2,3 C 87 % 1013,9 hPa 0,0 mm 4,7 km/h (1 Bft) N 5 0 min 0 UV-I 0 W/m 16,1 km/h (3 Bft)
12.02.2010 01:50 -2,3 C 87 % 1013,9 hPa 0,0 mm 2,3 km/h (1 Bft) N 360 0 min 0 UV-I 0 W/m 8,0 km/h (2 Bft)
12.02.2010 02:00 -2,3 C 87 % 1013,9 hPa 0,0 mm 2,5 km/h (1 Bft) N 11 0 min 0 UV-I 0 W/m 11,3 km/h (2 Bft)
12.02.2010 02:10 -2,3 C 87 % 1013,9 hPa 0,0 mm 1,6 km/h (1 Bft) N-NO 19 0 min 0 UV-I 0 W/m 11,3 km/h (2 Bft)
12.02.2010 02:20 -2,3 C 87 % 1014,0 hPa 0,0 mm 1,6 km/h (1 Bft) N-NO 20 0 min 0 UV-I 0 W/m 9,7 km/h (2 Bft)
12.02.2010 02:30 -2,3 C 87 % 1014,0 hPa 0,0 mm 2,3 km/h (1 Bft) N 355 0 min 0 UV-I 0 W/m 11,3 km/h (2 Bft)
12.02.2010 02:40 -2,3 C 87 % 1014,1 hPa 0,0 mm 2,2 km/h (1 Bft) W-NW 298 0 min 0 UV-I 0 W/m 9,7 km/h (2 Bft)
12.02.2010 02:50 -2,4 C 87 % 1014,1 hPa 0,0 mm 3,1 km/h (1 Bft) N-NW 345 0 min 0 UV-I 0 W/m 14,5 km/h (3 Bft)
12.02.2010 03:00 -2,4 C 87 % 1014,1 hPa 0,0 mm 4,0 km/h (1 Bft) N-NO 29 0 min 0 UV-I 0 W/m 16,1 km/h (3 Bft)
12.02.2010 03:10 -2,4 C 87 % 1014,1 hPa 0,0 mm 3,5 km/h (1 Bft) N 5 0 min 0 UV-I 0 W/m 11,3 km/h (2 Bft)
12.02.2010 03:20 -2,4 C 87 % 1014,2 hPa 0,0 mm 3,1 km/h (1 Bft) N-NO 24 0 min 0 UV-I 0 W/m 14,5 km/h (3 Bft)
12.02.2010 03:30 -2,4 C 87 % 1014,2 hPa 0,0 mm 2,4 km/h (1 Bft) NO 41 0 min 0 UV-I 0 W/m 9,7 km/h (2 Bft)
12.02.2010 03:40 -2,4 C 87 % 1014,2 hPa 0,0 mm 2,9 km/h (1 Bft) N-NO 14 0 min 0 UV-I 0 W/m 9,7 km/h (2 Bft)
12.02.2010 03:50 -2,5 C 87 % 1014,2 hPa 0,0 mm 3,6 km/h (1 Bft) N 355 0 min 0 UV-I 0 W/m 11,3 km/h (2 Bft)
12.02.2010 04:00 -2,5 C 87 % 1014,3 hPa 0,0 mm 3,8 km/h (1 Bft) N 5 0 min 0 UV-I 0 W/m 11,3 km/h (2 Bft)
12.02.2010 04:10 -2,5 C 87 % 1014,3 hPa 0,0 mm 4,2 km/h (1 Bft) N-NO 19 0 min 0 UV-I 0 W/m 11,3 km/h (2 Bft)
12.02.2010 04:20 -2,5 C 88 % 1014,2 hPa 0,0 mm 4,8 km/h (1 Bft) N-NO 20 0 min 0 UV-I 0 W/m 16,1 km/h (3 Bft)
12.02.2010 04:30 -2,6 C 88 % 1014,2 hPa 0,0 mm 4,9 km/h (1 Bft) N 349 0 min 0 UV-I 0 W/m 14,5 km/h (3 Bft)
12.02.2010 04:40 -2,6 C 88 % 1014,2 hPa 0,0 mm 5,2 km/h (1 Bft) N 349 0 min 0 UV-I 0 W/m 17,7 km/h (3 Bft)
12.02.2010 04:50 -2,6 C 88 % 1014,3 hPa 0,0 mm 2,8 km/h (1 Bft) N-NO 17 0 min 0 UV-I 0 W/m 11,3 km/h (2 Bft)
12.02.2010 05:00 -2,6 C 88 % 1014,3 hPa 0,0 mm 3,6 km/h (1 Bft) NO 45 0 min 0 UV-I 0 W/m 14,5 km/h (3 Bft)
12.02.2010 05:10 -2,6 C 88 % 1014,4 hPa 0,0 mm 2,7 km/h (1 Bft) N-NO 23 0 min 0 UV-I 0 W/m 16,1 km/h (3 Bft)
12.02.2010 05:20 -2,6 C 88 % 1014,4 hPa 0,0 mm 3,4 km/h (1 Bft) NO 35 0 min 0 UV-I 0 W/m 14,5 km/h (3 Bft)
12.02.2010 05:30 -2,6 C 88 % 1014,5 hPa 0,0 mm 4,1 km/h (1 Bft) N 355 0 min 0 UV-I 0 W/m 12,9 km/h (3 Bft)
12.02.2010 05:40 -2,7 C 88 % 1014,6 hPa 0,0 mm 5,2 km/h (1 Bft) N-NO 22 0 min 0 UV-I 0 W/m 17,7 km/h (3 Bft)
12.02.2010 05:50 -2,8 C 88 % 1014,6 hPa 0,0 mm 4,2 km/h (1 Bft) N 9 0 min 0 UV-I 0 W/m 11,3 km/h (2 Bft)
12.02.2010 06:00 -2,9 C 87 % 1014,6 hPa 0,0 mm 2,6 km/h (1 Bft) N-NO 15 0 min 0 UV-I 0 W/m 11,3 km/h (2 Bft)
12.02.2010 06:10 -3,0 C 87 % 1014,7 hPa 0,0 mm 4,2 km/h (1 Bft) NO 46 0 min 0 UV-I 0 W/m 16,1 km/h (3 Bft)
12.02.2010 06:20 -3,1 C 87 % 1014,7 hPa 0,0 mm 4,2 km/h (1 Bft) N-NO 17 0 min 0 UV-I 0 W/m 16,1 km/h (3 Bft)
12.02.2010 06:30 -3,2 C 87 % 1014,7 hPa 0,0 mm 4,3 km/h (1 Bft) N 360 0 min 0 UV-I 0 W/m 12,9 km/h (3 Bft)
12.02.2010 06:40 -3,2 C 87 % 1014,7 hPa 0,0 mm 5,2 km/h (1 Bft) N-NO 32 0 min 0 UV-I 0 W/m 14,5 km/h (3 Bft)
12.02.2010 06:50 -3,3 C 87 % 1014,8 hPa 0,0 mm 5,4 km/h (1 Bft) NO 37 0 min 0 UV-I 0 W/m 16,1 km/h (3 Bft)
12.02.2010 07:00 -3,3 C 87 % 1014,9 hPa 0,0 mm 4,3 km/h (1 Bft) O-NO 67 0 min 0 UV-I 0 W/m 9,7 km/h (2 Bft)
12.02.2010 07:10 -3,3 C 87 % 1014,9 hPa 0,0 mm 6,5 km/h (2 Bft) N 355 0 min 0 UV-I 0 W/m 16,1 km/h (3 Bft)
12.02.2010 07:20 -3,3 C 87 % 1014,9 hPa 0,0 mm 5,6 km/h (1 Bft) N 5 0 min 0 UV-I 0 W/m 19,3 km/h (3 Bft)
12.02.2010 07:30 -3,3 C 87 % 1015,0 hPa 0,0 mm 6,7 km/h (2 Bft) N 9 0 min 0 UV-I 0 W/m 16,1 km/h (3 Bft)
12.02.2010 07:40 -3,3 C 87 % 1015,1 hPa 0,0 mm 5,7 km/h (1 Bft) N 360 0 min 0 UV-I 0 W/m 16,1 km/h (3 Bft)
12.02.2010 07:50 -3,3 C 87 % 1015,3 hPa 0,0 mm 4,6 km/h (1 Bft) N-NW 340 0 min 0 UV-I 0 W/m 16,1 km/h (3 Bft)
12.02.2010 08:00 -3,3 C 87 % 1015,3 hPa 0,0 mm 1,6 km/h (1 Bft) N 10 0 min 0 UV-I 7 W/m 8,0 km/h (2 Bft)
12.02.2010 08:10 -3,3 C 87 % 1015,4 hPa 0,0 mm 3,2 km/h (1 Bft) N-NO 22 0 min 0 UV-I 14 W/m 12,9 km/h (3 Bft)
12.02.2010 08:20 -3,3 C 87 % 1015,5 hPa 0,0 mm 4,8 km/h (1 Bft) N-NO 22 0 min 0 UV-I 23 W/m 17,7 km/h (3 Bft)
12.02.2010 08:30 -3,3 C 87 % 1015,6 hPa 0,0 mm 4,8 km/h (1 Bft) N-NO 22 0 min 0 UV-I 39 W/m 14,5 km/h (3 Bft)
12.02.2010 08:40 -3,2 C 87 % 1015,7 hPa 0,0 mm 7,9 km/h (2 Bft) N-NO 28 0 min 0 UV-I 44 W/m 17,7 km/h (3 Bft)
12.02.2010 08:50 -3,2 C 87 % 1015,8 hPa 0,0 mm 3,2 km/h (1 Bft) N 360 0 min 0 UV-I 63 W/m 9,7 km/h (2 Bft)
12.02.2010 09:00 -3,1 C 87 % 1015,7 hPa 0,0 mm 4,8 km/h (1 Bft) N-NO 22 0 min 0 UV-I 83 W/m 16,1 km/h (3 Bft)
12.02.2010 09:10 -3,0 C 87 % 1015,8 hPa 0,0 mm 4,8 km/h (1 Bft) N-NO 22 0 min 0 UV-I 88 W/m 20,9 km/h (4 Bft)
12.02.2010 09:20 -2,9 C 87 % 1015,9 hPa 0,0 mm 4,8 km/h (1 Bft) N-NO 22 0 min 0 UV-I 95 W/m 11,3 km/h (2 Bft)
12.02.2010 09:30 -2,9 C 87 % 1016,0 hPa 0,0 mm 8,0 km/h (2 Bft) N-NO 22 0 min 1 UV-I 109 W/m 20,9 km/h (4 Bft)
12.02.2010 09:40 -2,8 C 86 % 1016,2 hPa 0,0 mm 3,2 km/h (1 Bft) N-NO 22 0 min 1 UV-I 113 W/m 17,7 km/h (3 Bft)
12.02.2010 09:50 -2,7 C 86 % 1016,1 hPa 0,0 mm 6,4 km/h (2 Bft) N-NO 22 0 min 1 UV-I 123 W/m 20,9 km/h (4 Bft)
12.02.2010 10:00 -2,6 C 85 % 1016,1 hPa 0,0 mm 6,4 km/h (2 Bft) N 360 0 min 1 UV-I 146 W/m 19,3 km/h (3 Bft)
12.02.2010 10:10 -2,5 C 85 % 1016,2 hPa 0,0 mm 4,8 km/h (1 Bft) N-NO 22 0 min 1 UV-I 144 W/m 16,1 km/h (3 Bft)
12.02.2010 10:20 -2,4 C 84 % 1016,2 hPa 0,0 mm 4,8 km/h (1 Bft) N-NO 22 0 min 1 UV-I 142 W/m 19,3 km/h (3 Bft)
12.02.2010 10:30 -2,3 C 84 % 1016,3 hPa 0,0 mm 4,8 km/h (1 Bft) N-NO 22 0 min 1 UV-I 142 W/m 17,7 km/h (3 Bft)
12.02.2010 10:40 -2,2 C 83 % 1016,3 hPa 0,0 mm 6,4 km/h (2 Bft) N 360 0 min 1 UV-I 142 W/m 17,7 km/h (3 Bft)
12.02.2010 10:50 -2,1 C 83 % 1016,5 hPa 0,0 mm 3,2 km/h (1 Bft) N-NO 22 0 min 1 UV-I 137 W/m 16,1 km/h (3 Bft)
12.02.2010 11:00 -2,1 C 82 % 1016,6 hPa 0,0 mm 3,2 km/h (1 Bft) N-NO 22 0 min 1 UV-I 97 W/m 14,5 km/h (3 Bft)
12.02.2010 11:10 -2,1 C 82 % 1016,6 hPa 0,0 mm 1,6 km/h (1 Bft) O-NO 67 0 min 0 UV-I 77 W/m 8,0 km/h (2 Bft)
12.02.2010 11:20 -2,2 C 82 % 1016,6 hPa 0,0 mm 1,6 km/h (1 Bft) N-NO 22 0 min 1 UV-I 88 W/m 9,7 km/h (2 Bft)
12.02.2010 11:30 -2,2 C 82 % 1016,6 hPa 0,0 mm 4,8 km/h (1 Bft) N-NO 22 0 min 1 UV-I 107 W/m 16,1 km/h (3 Bft)
12.02.2010 11:40 -2,2 C 82 % 1016,6 hPa 0,0 mm 3,2 km/h (1 Bft) N 360 0 min 1 UV-I 109 W/m 11,3 km/h (2 Bft)
12.02.2010 11:50 -2,1 C 81 % 1016,7 hPa 0,0 mm 3,2 km/h (1 Bft) N-NO 22 0 min 1 UV-I 104 W/m 9,7 km/h (2 Bft)
12.02.2010 12:00 -2,1 C 81 % 1016,7 hPa 0,0 mm 1,6 km/h (1 Bft) N-NO 22 0 min 1 UV-I 105 W/m 9,7 km/h (2 Bft)
12.02.2010 12:10 -2,1 C 81 % 1016,6 hPa 0,0 mm 4,8 km/h (1 Bft) N-NO 22 0 min 1 UV-I 142 W/m 19,3 km/h (3 Bft)
12.02.2010 12:20 -2,1 C 81 % 1016,6 hPa 0,0 mm 4,8 km/h (1 Bft) N 360 0 min 1 UV-I 155 W/m 16,1 km/h (3 Bft)
12.02.2010 12:30 -2,0 C 80 % 1016,6 hPa 0,0 mm 4,8 km/h (1 Bft) N 360 0 min 1 UV-I 153 W/m 16,1 km/h (3 Bft)
12.02.2010 12:40 -1,9 C 80 % 1016,5 hPa 0,0 mm 4,8 km/h (1 Bft) N-NO 22 0 min 1 UV-I 204 W/m 14,5 km/h (3 Bft)
12.02.2010 12:50 -1,7 C 80 % 1016,5 hPa 0,0 mm 4,8 km/h (1 Bft) N-NO 22 0 min 1 UV-I 207 W/m 14,5 km/h (3 Bft)
12.02.2010 13:00 -1,6 C 79 % 1016,4 hPa 0,0 mm 8,0 km/h (2 Bft) N-NO 22 10 min 1 UV-I 250 W/m 19,3 km/h (3 Bft)
12.02.2010 13:10 -1,4 C 78 % 1016,4 hPa 0,0 mm 6,4 km/h (2 Bft) N-NO 22 10 min 1 UV-I 253 W/m 17,7 km/h (3 Bft)
12.02.2010 13:20 -1,2 C 77 % 1016,4 hPa 0,0 mm 6,4 km/h (2 Bft) N 360 0 min 1 UV-I 216 W/m 19,3 km/h (3 Bft)
12.02.2010 13:30 -1,2 C 77 % 1016,3 hPa 0,0 mm 4,8 km/h (1 Bft) N-NO 22 0 min 1 UV-I 195 W/m 16,1 km/h (3 Bft)
12.02.2010 13:40 -1,2 C 77 % 1016,5 hPa 0,0 mm 6,4 km/h (2 Bft) N 360 0 min 1 UV-I 183 W/m 17,7 km/h (3 Bft)
12.02.2010 13:50 -1,2 C 77 % 1016,4 hPa 0,0 mm 4,8 km/h (1 Bft) N-NO 22 0 min 1 UV-I 171 W/m 14,5 km/h (3 Bft)
12.02.2010 14:00 -1,2 C 77 % 1016,4 hPa 0,0 mm 3,2 km/h (1 Bft) N-NO 22 0 min 1 UV-I 178 W/m 14,5 km/h (3 Bft)
12.02.2010 14:10 -1,2 C 77 % 1016,4 hPa 0,0 mm 3,2 km/h (1 Bft) N-NO 22 0 min 1 UV-I 148 W/m 11,3 km/h (2 Bft)
12.02.2010 14:20 -1,2 C 77 % 1016,4 hPa 0,0 mm 3,2 km/h (1 Bft) N 360 0 min 1 UV-I 134 W/m 11,3 km/h (2 Bft)
12.02.2010 14:30 -1,3 C 77 % 1016,3 hPa 0,0 mm 4,8 km/h (1 Bft) N-NO 22 0 min 1 UV-I 121 W/m 14,5 km/h (3 Bft)
12.02.2010 14:40 -1,4 C 77 % 1016,3 hPa 0,0 mm 4,8 km/h (1 Bft) N 360 0 min 1 UV-I 114 W/m 17,7 km/h (3 Bft)
12.02.2010 14:50 -1,5 C 78 % 1016,2 hPa 0,0 mm 3,2 km/h (1 Bft) N-NO 22 0 min 1 UV-I 111 W/m 16,1 km/h (3 Bft)
12.02.2010 15:00 -1,6 C 78 % 1016,3 hPa 0,0 mm 3,2 km/h (1 Bft) N-NO 22 0 min 0 UV-I 100 W/m 14,5 km/h (3 Bft)
12.02.2010 15:10 -1,7 C 78 % 1016,4 hPa 0,0 mm 3,2 km/h (1 Bft) N 360 0 min 0 UV-I 91 W/m 14,5 km/h (3 Bft)
12.02.2010 15:20 -1,8 C 79 % 1016,5 hPa 0,0 mm 3,2 km/h (1 Bft) N-NO 22 0 min 0 UV-I 88 W/m 14,5 km/h (3 Bft)
12.02.2010 15:30 -1,8 C 80 % 1016,6 hPa 0,0 mm 1,6 km/h (1 Bft) N 360 0 min 0 UV-I 72 W/m 11,3 km/h (2 Bft)
12.02.2010 15:40 -1,9 C 80 % 1016,7 hPa 0,0 mm 3,2 km/h (1 Bft) N 360 0 min 0 UV-I 74 W/m 14,5 km/h (3 Bft)
12.02.2010 15:50 -2,1 C 80 % 1016,8 hPa 0,0 mm 1,6 km/h (1 Bft) N 360 0 min 0 UV-I 76 W/m 11,3 km/h (2 Bft)
12.02.2010 16:00 -2,1 C 81 % 1016,9 hPa 0,0 mm 2,3 km/h (1 Bft) NO 43 0 min 0 UV-I 55 W/m 9,7 km/h (2 Bft)
12.02.2010 16:10 -2,1 C 81 % 1016,9 hPa 0,0 mm 1,6 km/h (1 Bft) N 360 0 min 0 UV-I 53 W/m 8,0 km/h (2 Bft)
12.02.2010 16:20 -2,2 C 81 % 1017,0 hPa 0,0 mm 3,2 km/h (1 Bft) N 360 0 min 0 UV-I 47 W/m 9,7 km/h (2 Bft)
12.02.2010 16:30 -2,2 C 81 % 1017,0 hPa 0,0 mm 4,8 km/h (1 Bft) N 360 0 min 0 UV-I 46 W/m 12,9 km/h (3 Bft)
12.02.2010 16:40 -2,3 C 81 % 1017,0 hPa 0,0 mm 1,6 km/h (1 Bft) N-NO 22 0 min 0 UV-I 39 W/m 9,7 km/h (2 Bft)
12.02.2010 16:50 -2,4 C 81 % 1017,1 hPa 0,0 mm 1,6 km/h (1 Bft) N-NO 22 0 min 0 UV-I 25 W/m 8,0 km/h (2 Bft)
12.02.2010 17:00 -2,4 C 82 % 1017,2 hPa 0,0 mm 0,0 km/h (0 Bft) N-NO 22 0 min 0 UV-I 18 W/m 4,8 km/h (1 Bft)
12.02.2010 17:10 -2,4 C 82 % 1017,1 hPa 0,0 mm 1,6 km/h (1 Bft) N-NO 22 0 min 0 UV-I 11 W/m 8,0 km/h (2 Bft)
12.02.2010 17:20 -2,5 C 82 % 1017,1 hPa 0,0 mm 1,6 km/h (1 Bft) N 360 0 min 0 UV-I 9 W/m 14,5 km/h (3 Bft)
12.02.2010 17:30 -2,6 C 82 % 1017,2 hPa 0,0 mm 0,0 km/h (0 Bft) N 360 0 min 0 UV-I 5 W/m 9,7 km/h (2 Bft)
12.02.2010 17:40 -2,7 C 82 % 1017,3 hPa 0,0 mm 0,0 km/h (0 Bft) N 360 0 min 0 UV-I 0 W/m 4,8 km/h (1 Bft)
12.02.2010 17:50 -2,7 C 83 % 1017,4 hPa 0,0 mm 1,6 km/h (1 Bft) N-NO 22 0 min 0 UV-I 0 W/m 4,8 km/h (1 Bft)
12.02.2010 18:00 -2,8 C 83 % 1017,5 hPa 0,0 mm 0,0 km/h (0 Bft) N 360 0 min 0 UV-I 0 W/m 4,8 km/h (1 Bft)
12.02.2010 18:10 -2,8 C 83 % 1017,6 hPa 0,0 mm 0,0 km/h (0 Bft) N 360 0 min 0 UV-I 0 W/m 6,4 km/h (2 Bft)
12.02.2010 18:20 -2,9 C 83 % 1017,6 hPa 0,0 mm 0,0 km/h (0 Bft) NW 315 0 min 0 UV-I 0 W/m 3,2 km/h (1 Bft)
12.02.2010 18:30 -3,0 C 83 % 1017,7 hPa 0,0 mm 0,0 km/h (0 Bft) NW 315 0 min 0 UV-I 0 W/m 4,8 km/h (1 Bft)
12.02.2010 18:40 -3,1 C 84 % 1017,7 hPa 0,0 mm 0,0 km/h (0 Bft) W-NW 292 0 min 0 UV-I 0 W/m 4,8 km/h (1 Bft)
12.02.2010 18:50 -3,1 C 84 % 1017,7 hPa 0,0 mm 0,0 km/h (0 Bft) W-NW 292 0 min 0 UV-I 0 W/m 4,8 km/h (1 Bft)
12.02.2010 19:00 -3,1 C 84 % 1017,8 hPa 0,0 mm 0,0 km/h (0 Bft) NW 315 0 min 0 UV-I 0 W/m 4,8 km/h (1 Bft)
12.02.2010 19:10 -3,2 C 84 % 1017,8 hPa 0,0 mm 0,0 km/h (0 Bft) N 360 0 min 0 UV-I 0 W/m 6,4 km/h (2 Bft)
12.02.2010 19:20 -3,2 C 85 % 1017,9 hPa 0,0 mm 0,0 km/h (0 Bft) N 360 0 min 0 UV-I 0 W/m 8,0 km/h (2 Bft)
12.02.2010 19:30 -3,2 C 85 % 1017,8 hPa 0,0 mm 1,6 km/h (1 Bft) N 360 0 min 0 UV-I 0 W/m 9,7 km/h (2 Bft)
12.02.2010 19:40 -3,2 C 85 % 1017,9 hPa 0,0 mm 1,6 km/h (1 Bft) N-NO 22 0 min 0 UV-I 0 W/m 6,4 km/h (2 Bft)
12.02.2010 19:50 -3,2 C 85 % 1017,8 hPa 0,0 mm 3,2 km/h (1 Bft) N-NO 22 0 min 0 UV-I 0 W/m 9,7 km/h (2 Bft)
12.02.2010 20:00 -3,2 C 85 % 1017,8 hPa 0,0 mm 1,6 km/h (1 Bft) N 360 0 min 0 UV-I 0 W/m 8,0 km/h (2 Bft)
12.02.2010 20:10 -3,2 C 86 % 1017,8 hPa 0,0 mm 1,6 km/h (1 Bft) N 360 0 min 0 UV-I 0 W/m 9,7 km/h (2 Bft)
12.02.2010 20:20 -3,2 C 86 % 1017,8 hPa 0,0 mm 1,6 km/h (1 Bft) N-NO 22 0 min 0 UV-I 0 W/m 8,0 km/h (2 Bft)
12.02.2010 20:30 -3,2 C 86 % 1017,8 hPa 0,0 mm 1,6 km/h (1 Bft) N-NO 22 0 min 0 UV-I 0 W/m 6,4 km/h (2 Bft)
12.02.2010 20:40 -3,2 C 86 % 1017,8 hPa 0,0 mm 0,0 km/h (0 Bft) N-NO 22 0 min 0 UV-I 0 W/m 4,8 km/h (1 Bft)
12.02.2010 20:50 -3,2 C 86 % 1017,9 hPa 0,0 mm 1,6 km/h (1 Bft) N-NO 22 0 min 0 UV-I 0 W/m 8,0 km/h (2 Bft)
12.02.2010 21:00 -3,2 C 86 % 1018,1 hPa 0,0 mm 1,6 km/h (1 Bft) N 360 0 min 0 UV-I 0 W/m 4,8 km/h (1 Bft)
12.02.2010 21:10 -3,2 C 86 % 1018,2 hPa 0,0 mm 3,2 km/h (1 Bft) N 360 0 min 0 UV-I 0 W/m 8,0 km/h (2 Bft)
12.02.2010 21:20 -3,2 C 86 % 1018,2 hPa 0,0 mm 3,2 km/h (1 Bft) N 360 0 min 0 UV-I 0 W/m 11,3 km/h (2 Bft)
12.02.2010 21:30 -3,2 C 86 % 1018,2 hPa 0,0 mm 3,2 km/h (1 Bft) N-NO 22 0 min 0 UV-I 0 W/m 11,3 km/h (2 Bft)
12.02.2010 21:40 -3,2 C 86 % 1018,2 hPa 0,0 mm 0,0 km/h (0 Bft) N-NO 22 0 min 0 UV-I 0 W/m 4,8 km/h (1 Bft)
12.02.2010 21:50 -3,2 C 86 % 1018,2 hPa 0,0 mm 1,6 km/h (1 Bft) N-NO 22 0 min 0 UV-I 0 W/m 8,0 km/h (2 Bft)
12.02.2010 22:00 -3,2 C 86 % 1018,2 hPa 0,0 mm 1,6 km/h (1 Bft) N 360 0 min 0 UV-I 0 W/m 6,4 km/h (2 Bft)
12.02.2010 22:10 -3,2 C 86 % 1018,2 hPa 0,0 mm 1,6 km/h (1 Bft) N-NO 22 0 min 0 UV-I 0 W/m 8,0 km/h (2 Bft)
12.02.2010 22:20 -3,2 C 86 % 1018,2 hPa 0,0 mm 1,6 km/h (1 Bft) N 360 0 min 0 UV-I 0 W/m 9,7 km/h (2 Bft)
12.02.2010 22:30 -3,2 C 86 % 1018,2 hPa 0,0 mm 3,2 km/h (1 Bft) N-NO 22 0 min 0 UV-I 0 W/m 9,7 km/h (2 Bft)
12.02.2010 22:40 -3,2 C 86 % 1018,2 hPa 0,0 mm 1,6 km/h (1 Bft) N-NO 22 0 min 0 UV-I 0 W/m 4,8 km/h (1 Bft)
12.02.2010 22:50 -3,2 C 87 % 1018,1 hPa 0,0 mm 1,6 km/h (1 Bft) N-NO 22 0 min 0 UV-I 0 W/m 6,4 km/h (2 Bft)
12.02.2010 23:00 -3,3 C 86 % 1018,1 hPa 0,0 mm 1,6 km/h (1 Bft) N 360 0 min 0 UV-I 0 W/m 9,7 km/h (2 Bft)
12.02.2010 23:10 -3,3 C 86 % 1018,1 hPa 0,0 mm 1,6 km/h (1 Bft) N-NO 22 0 min 0 UV-I 0 W/m 8,0 km/h (2 Bft)
12.02.2010 23:20 -3,3 C 87 % 1018,1 hPa 0,0 mm 1,6 km/h (1 Bft) N 360 0 min 0 UV-I 0 W/m 4,8 km/h (1 Bft)
12.02.2010 23:30 -3,3 C 87 % 1018,1 hPa 0,0 mm 1,6 km/h (1 Bft) N 360 0 min 0 UV-I 0 W/m 9,7 km/h (2 Bft)
12.02.2010 23:40 -3,3 C 87 % 1018,2 hPa 0,0 mm 1,6 km/h (1 Bft) N 360 0 min 0 UV-I 0 W/m 4,8 km/h (1 Bft)
12.02.2010 23:50 -3,4 C 87 % 1018,2 hPa 0,0 mm 0,0 km/h (0 Bft) N-NO 22 0 min 0 UV-I 0 W/m 4,8 km/h (1 Bft)
_ Min-Zeit 08:00 13:20 00:00 - 17:00 - - - - - 18:20
Minimum _ -3,4 C 77 % 1013,8 hPa - 0,0 km/h (0 Bft) - - - - - 3,2 km/h (1 Bft)
_ Max-Zeit 13:40 04:20 21:10 00:00 09:30 - - 13:00 13:00 13:10 09:10
Maximum _ -1,1 C 88 % 1018,2 hPa 0,0 mm 8,0 km/h
N-NO (2 Bft)
- - 10 min 1 UV-I 253 W/m 20,9 km/h
N-NW (4 Bft)
Durchschnitt _ -2,6 C 84 % 1016,1 hPa #0,0 mm 3,2 km/h (1 Bft) N-NO - #20 min. 1 UV-I 105 W/m 12,1 km/h (2 Bft)